sensor_id;sensor_type;location;lat;lon;timestamp;pressure;altitude;pressure_sealevel;temperature;humidity
56070;BME280;41944;52.078;-0.058;2023-01-28T00:01:27;102929.50;;;2.87;100.00
56070;BME280;41944;52.078;-0.058;2023-01-28T00:03:54;102928.97;;;2.81;100.00
56070;BME280;41944;52.078;-0.058;2023-01-28T00:06:21;102930.59;;;2.86;100.00
56070;BME280;41944;52.078;-0.058;2023-01-28T00:08:48;102928.25;;;2.87;100.00
56070;BME280;41944;52.078;-0.058;2023-01-28T00:11:15;102931.23;;;2.95;100.00
56070;BME280;41944;52.078;-0.058;2023-01-28T00:13:41;102936.87;;;2.99;100.00
56070;BME280;41944;52.078;-0.058;2023-01-28T00:16:08;102931.34;;;3.14;100.00
56070;BME280;41944;52.078;-0.058;2023-01-28T00:18:36;102926.68;;;3.09;100.00
56070;BME280;41944;52.078;-0.058;2023-01-28T00:21:05;102919.20;;;3.03;100.00
56070;BME280;41944;52.078;-0.058;2023-01-28T00:23:37;102912.19;;;3.01;100.00
56070;BME280;41944;52.078;-0.058;2023-01-28T00:26:06;102910.69;;;3.13;100.00
56070;BME280;41944;52.078;-0.058;2023-01-28T00:28:34;102909.25;;;3.03;100.00
56070;BME280;41944;52.078;-0.058;2023-01-28T00:31:06;102902.90;;;3.02;100.00
56070;BME280;41944;52.078;-0.058;2023-01-28T00:33:33;102895.37;;;2.93;100.00
56070;BME280;41944;52.078;-0.058;2023-01-28T00:36:02;102896.83;;;2.95;100.00
56070;BME280;41944;52.078;-0.058;2023-01-28T00:38:30;102899.92;;;2.99;100.00
56070;BME280;41944;52.078;-0.058;2023-01-28T00:41:06;102899.43;;;2.98;100.00
56070;BME280;41944;52.078;-0.058;2023-01-28T00:43:34;102905.45;;;3.02;100.00
56070;BME280;41944;52.078;-0.058;2023-01-28T00:46:01;102908.03;;;2.94;100.00
56070;BME280;41944;52.078;-0.058;2023-01-28T00:48:28;102911.66;;;2.95;100.00
56070;BME280;41944;52.078;-0.058;2023-01-28T00:50:55;102914.26;;;2.99;100.00
56070;BME280;41944;52.078;-0.058;2023-01-28T00:53:22;102912.16;;;2.95;100.00
56070;BME280;41944;52.078;-0.058;2023-01-28T00:55:49;102912.76;;;2.91;100.00
56070;BME280;41944;52.078;-0.058;2023-01-28T00:58:16;102910.37;;;2.93;100.00
56070;BME280;41944;52.078;-0.058;2023-01-28T01:00:44;102906.89;;;2.93;100.00
56070;BME280;41944;52.078;-0.058;2023-01-28T01:03:10;102907.58;;;2.98;100.00
56070;BME280;41944;52.078;-0.058;2023-01-28T01:05:38;102909.92;;;2.98;100.00
56070;BME280;41944;52.078;-0.058;2023-01-28T01:08:05;102910.19;;;2.98;100.00
56070;BME280;41944;52.078;-0.058;2023-01-28T01:10:31;102909.53;;;3.01;100.00
56070;BME280;41944;52.078;-0.058;2023-01-28T01:12:58;102912.25;;;2.99;100.00
56070;BME280;41944;52.078;-0.058;2023-01-28T01:15:26;102915.30;;;2.98;100.00
56070;BME280;41944;52.078;-0.058;2023-01-28T01:17:52;102916.77;;;2.96;100.00
56070;BME280;41944;52.078;-0.058;2023-01-28T01:20:21;102910.85;;;2.96;100.00
56070;BME280;41944;52.078;-0.058;2023-01-28T01:22:48;102910.99;;;3.04;100.00
56070;BME280;41944;52.078;-0.058;2023-01-28T01:25:17;102907.83;;;3.07;100.00
56070;BME280;41944;52.078;-0.058;2023-01-28T01:27:47;102904.19;;;3.04;100.00
56070;BME280;41944;52.078;-0.058;2023-01-28T01:30:15;102900.23;;;3.05;100.00
56070;BME280;41944;52.078;-0.058;2023-01-28T01:32:43;102895.59;;;3.09;100.00
56070;BME280;41944;52.078;-0.058;2023-01-28T01:35:10;102899.69;;;3.19;100.00
56070;BME280;41944;52.078;-0.058;2023-01-28T01:37:37;102904.90;;;3.21;100.00
56070;BME280;41944;52.078;-0.058;2023-01-28T01:40:06;102903.19;;;3.13;100.00
56070;BME280;41944;52.078;-0.058;2023-01-28T01:42:33;102902.49;;;3.12;100.00
56070;BME280;41944;52.078;-0.058;2023-01-28T01:45:02;102898.07;;;3.15;100.00
56070;BME280;41944;52.078;-0.058;2023-01-28T01:47:36;102895.76;;;3.09;100.00
56070;BME280;41944;52.078;-0.058;2023-01-28T01:50:11;102893.38;;;3.04;100.00
56070;BME280;41944;52.078;-0.058;2023-01-28T01:52:41;102895.39;;;3.04;100.00
56070;BME280;41944;52.078;-0.058;2023-01-28T01:55:15;102896.76;;;3.16;100.00
56070;BME280;41944;52.078;-0.058;2023-01-28T01:57:46;102896.12;;;3.13;100.00
56070;BME280;41944;52.078;-0.058;2023-01-28T02:00:15;102893.44;;;3.17;100.00
56070;BME280;41944;52.078;-0.058;2023-01-28T02:02:45;102894.82;;;3.14;100.00
56070;BME280;41944;52.078;-0.058;2023-01-28T02:05:16;102898.96;;;3.26;99.98
56070;BME280;41944;52.078;-0.058;2023-01-28T02:07:45;102898.98;;;3.19;98.80
56070;BME280;41944;52.078;-0.058;2023-01-28T02:10:14;102903.71;;;3.34;98.34
56070;BME280;41944;52.078;-0.058;2023-01-28T02:12:43;102902.87;;;3.26;98.82
56070;BME280;41944;52.078;-0.058;2023-01-28T02:15:15;102899.71;;;3.28;99.08
56070;BME280;41944;52.078;-0.058;2023-01-28T02:17:44;102901.14;;;3.24;98.58
56070;BME280;41944;52.078;-0.058;2023-01-28T02:20:13;102902.26;;;3.30;97.91
56070;BME280;41944;52.078;-0.058;2023-01-28T02:24:02;102893.90;;;3.11;98.92
56070;BME280;41944;52.078;-0.058;2023-01-28T02:26:49;102902.99;;;3.07;99.92
56070;BME280;41944;52.078;-0.058;2023-01-28T02:29:26;102909.18;;;3.08;100.00
56070;BME280;41944;52.078;-0.058;2023-01-28T02:31:56;102908.00;;;3.05;99.97
56070;BME280;41944;52.078;-0.058;2023-01-28T02:34:35;102907.58;;;3.01;99.75
56070;BME280;41944;52.078;-0.058;2023-01-28T02:37:10;102908.33;;;3.02;99.53
56070;BME280;41944;52.078;-0.058;2023-01-28T02:39:43;102909.85;;;3.02;99.44
56070;BME280;41944;52.078;-0.058;2023-01-28T02:42:14;102912.20;;;3.00;99.10
56070;BME280;41944;52.078;-0.058;2023-01-28T02:44:43;102908.88;;;2.99;98.71
56070;BME280;41944;52.078;-0.058;2023-01-28T02:47:12;102910.51;;;2.99;98.86
56070;BME280;41944;52.078;-0.058;2023-01-28T02:49:42;102910.61;;;3.04;98.72
56070;BME280;41944;52.078;-0.058;2023-01-28T02:52:21;102913.63;;;3.11;97.84
56070;BME280;41944;52.078;-0.058;2023-01-28T02:54:55;102918.37;;;3.09;97.39
56070;BME280;41944;52.078;-0.058;2023-01-28T02:57:31;102919.90;;;3.03;96.90
56070;BME280;41944;52.078;-0.058;2023-01-28T03:00:06;102924.17;;;3.14;96.70
56070;BME280;41944;52.078;-0.058;2023-01-28T03:02:41;102923.67;;;3.16;95.71
56070;BME280;41944;52.078;-0.058;2023-01-28T03:05:16;102920.39;;;3.04;95.95
56070;BME280;41944;52.078;-0.058;2023-01-28T03:07:46;102922.96;;;2.97;96.02
56070;BME280;41944;52.078;-0.058;2023-01-28T03:10:17;102927.91;;;2.94;96.09
56070;BME280;41944;52.078;-0.058;2023-01-28T03:12:50;102931.02;;;2.88;97.38
56070;BME280;41944;52.078;-0.058;2023-01-28T03:15:20;102935.85;;;2.94;96.98
56070;BME280;41944;52.078;-0.058;2023-01-28T03:17:52;102931.72;;;2.92;97.21
56070;BME280;41944;52.078;-0.058;2023-01-28T03:20:24;102929.92;;;2.96;96.65
56070;BME280;41944;52.078;-0.058;2023-01-28T03:22:55;102930.33;;;3.06;95.63
56070;BME280;41944;52.078;-0.058;2023-01-28T03:25:25;102935.16;;;3.09;94.92
56070;BME280;41944;52.078;-0.058;2023-01-28T03:27:58;102933.12;;;3.00;95.56
56070;BME280;41944;52.078;-0.058;2023-01-28T03:30:30;102939.58;;;3.04;94.40
56070;BME280;41944;52.078;-0.058;2023-01-28T03:33:00;102936.04;;;3.05;94.05
56070;BME280;41944;52.078;-0.058;2023-01-28T03:35:32;102939.20;;;3.03;93.41
56070;BME280;41944;52.078;-0.058;2023-01-28T03:38:01;102940.05;;;3.09;92.44
56070;BME280;41944;52.078;-0.058;2023-01-28T03:40:30;102937.23;;;3.06;93.45
56070;BME280;41944;52.078;-0.058;2023-01-28T03:42:57;102930.96;;;3.13;93.44
56070;BME280;41944;52.078;-0.058;2023-01-28T03:45:24;102928.10;;;3.06;94.28
56070;BME280;41944;52.078;-0.058;2023-01-28T03:47:51;102925.66;;;3.04;94.44
56070;BME280;41944;52.078;-0.058;2023-01-28T03:50:18;102923.76;;;3.05;94.55
56070;BME280;41944;52.078;-0.058;2023-01-28T03:52:45;102927.09;;;3.00;94.63
56070;BME280;41944;52.078;-0.058;2023-01-28T03:55:13;102925.50;;;3.03;94.22
56070;BME280;41944;52.078;-0.058;2023-01-28T03:57:40;102928.93;;;3.00;94.89
56070;BME280;41944;52.078;-0.058;2023-01-28T04:00:08;102927.15;;;2.95;95.12
56070;BME280;41944;52.078;-0.058;2023-01-28T04:02:35;102920.59;;;2.87;94.76
56070;BME280;41944;52.078;-0.058;2023-01-28T04:05:02;102922.56;;;2.83;94.26
56070;BME280;41944;52.078;-0.058;2023-01-28T04:07:29;102926.78;;;2.89;94.76
56070;BME280;41944;52.078;-0.058;2023-01-28T04:09:56;102931.29;;;2.90;95.73
56070;BME280;41944;52.078;-0.058;2023-01-28T04:12:23;102925.29;;;3.01;95.35
56070;BME280;41944;52.078;-0.058;2023-01-28T04:14:50;102920.57;;;2.96;95.47
56070;BME280;41944;52.078;-0.058;2023-01-28T04:17:17;102916.78;;;2.92;95.62
56070;BME280;41944;52.078;-0.058;2023-01-28T04:19:44;102918.68;;;2.92;95.45
56070;BME280;41944;52.078;-0.058;2023-01-28T04:22:12;102924.22;;;2.92;96.34
56070;BME280;41944;52.078;-0.058;2023-01-28T04:24:39;102918.75;;;2.87;96.23
56070;BME280;41944;52.078;-0.058;2023-01-28T04:27:06;102908.46;;;3.15;95.72
56070;BME280;41944;52.078;-0.058;2023-01-28T04:29:33;102905.24;;;3.16;93.40
56070;BME280;41944;52.078;-0.058;2023-01-28T04:31:59;102912.07;;;3.23;92.21
56070;BME280;41944;52.078;-0.058;2023-01-28T04:34:26;102915.50;;;3.04;92.39
56070;BME280;41944;52.078;-0.058;2023-01-28T04:36:53;102918.81;;;3.06;92.27
56070;BME280;41944;52.078;-0.058;2023-01-28T04:39:20;102906.59;;;3.02;92.89
56070;BME280;41944;52.078;-0.058;2023-01-28T04:41:47;102899.66;;;3.11;92.26
56070;BME280;41944;52.078;-0.058;2023-01-28T04:44:14;102899.76;;;2.96;92.89
56070;BME280;41944;52.078;-0.058;2023-01-28T04:46:41;102896.48;;;2.82;93.96
56070;BME280;41944;52.078;-0.058;2023-01-28T04:49:08;102893.01;;;2.78;93.50
56070;BME280;41944;52.078;-0.058;2023-01-28T04:51:35;102895.25;;;2.71;93.08
56070;BME280;41944;52.078;-0.058;2023-01-28T04:54:01;102898.42;;;2.56;93.96
56070;BME280;41944;52.078;-0.058;2023-01-28T04:56:28;102901.09;;;2.51;94.13
56070;BME280;41944;52.078;-0.058;2023-01-28T04:58:55;102903.70;;;2.39;95.13
56070;BME280;41944;52.078;-0.058;2023-01-28T05:01:22;102902.29;;;2.35;95.99
56070;BME280;41944;52.078;-0.058;2023-01-28T05:03:49;102913.36;;;2.33;96.12
56070;BME280;41944;52.078;-0.058;2023-01-28T05:06:16;102912.28;;;2.27;96.45
56070;BME280;41944;52.078;-0.058;2023-01-28T05:08:43;102907.23;;;2.22;97.30
56070;BME280;41944;52.078;-0.058;2023-01-28T05:11:10;102907.71;;;2.20;97.46
56070;BME280;41944;52.078;-0.058;2023-01-28T05:13:37;102909.02;;;2.17;97.60
56070;BME280;41944;52.078;-0.058;2023-01-28T05:16:05;102909.13;;;2.20;97.89
56070;BME280;41944;52.078;-0.058;2023-01-28T05:18:32;102906.63;;;2.26;97.62
56070;BME280;41944;52.078;-0.058;2023-01-28T05:20:59;102907.66;;;2.27;97.28
56070;BME280;41944;52.078;-0.058;2023-01-28T05:23:26;102910.27;;;2.26;97.68
56070;BME280;41944;52.078;-0.058;2023-01-28T05:25:53;102907.23;;;2.24;97.76
56070;BME280;41944;52.078;-0.058;2023-01-28T05:28:20;102911.30;;;2.34;97.49
56070;BME280;41944;52.078;-0.058;2023-01-28T05:30:47;102916.95;;;2.35;96.28
56070;BME280;41944;52.078;-0.058;2023-01-28T05:33:14;102917.82;;;2.38;95.55
56070;BME280;41944;52.078;-0.058;2023-01-28T05:35:41;102911.90;;;2.44;94.21
56070;BME280;41944;52.078;-0.058;2023-01-28T05:38:10;102915.43;;;2.47;94.50
56070;BME280;41944;52.078;-0.058;2023-01-28T05:40:37;102911.35;;;2.47;94.77
56070;BME280;41944;52.078;-0.058;2023-01-28T05:43:04;102913.09;;;2.47;94.88
56070;BME280;41944;52.078;-0.058;2023-01-28T05:45:31;102914.07;;;2.45;95.16
56070;BME280;41944;52.078;-0.058;2023-01-28T05:47:58;102924.06;;;2.46;95.08
56070;BME280;41944;52.078;-0.058;2023-01-28T05:50:25;102924.11;;;2.46;95.82
56070;BME280;41944;52.078;-0.058;2023-01-28T05:52:51;102928.67;;;2.52;94.99
56070;BME280;41944;52.078;-0.058;2023-01-28T05:55:19;102926.12;;;2.50;94.22
56070;BME280;41944;52.078;-0.058;2023-01-28T05:57:46;102920.48;;;2.46;94.86
56070;BME280;41944;52.078;-0.058;2023-01-28T06:00:15;102921.12;;;2.55;94.54
56070;BME280;41944;52.078;-0.058;2023-01-28T06:02:42;102922.43;;;2.58;93.60
56070;BME280;41944;52.078;-0.058;2023-01-28T06:05:09;102921.93;;;2.60;93.92
56070;BME280;41944;52.078;-0.058;2023-01-28T06:07:36;102920.89;;;2.73;93.60
56070;BME280;41944;52.078;-0.058;2023-01-28T06:10:04;102928.72;;;2.65;93.76
56070;BME280;41944;52.078;-0.058;2023-01-28T06:12:31;102925.14;;;2.61;94.18
56070;BME280;41944;52.078;-0.058;2023-01-28T06:14:58;102924.21;;;2.65;93.71
56070;BME280;41944;52.078;-0.058;2023-01-28T06:17:25;102919.42;;;2.71;93.31
56070;BME280;41944;52.078;-0.058;2023-01-28T06:19:52;102918.94;;;2.70;93.37
56070;BME280;41944;52.078;-0.058;2023-01-28T06:22:19;102912.42;;;2.69;93.47
56070;BME280;41944;52.078;-0.058;2023-01-28T06:24:46;102909.05;;;2.73;93.28
56070;BME280;41944;52.078;-0.058;2023-01-28T06:27:14;102922.08;;;2.77;92.35
56070;BME280;41944;52.078;-0.058;2023-01-28T06:29:41;102920.21;;;2.90;92.00
56070;BME280;41944;52.078;-0.058;2023-01-28T06:32:08;102918.25;;;2.90;91.20
56070;BME280;41944;52.078;-0.058;2023-01-28T06:34:35;102927.23;;;2.81;91.32
56070;BME280;41944;52.078;-0.058;2023-01-28T06:37:02;102937.12;;;2.82;91.23
56070;BME280;41944;52.078;-0.058;2023-01-28T06:39:29;102938.51;;;2.93;90.29
56070;BME280;41944;52.078;-0.058;2023-01-28T06:41:57;102934.89;;;2.86;91.35
56070;BME280;41944;52.078;-0.058;2023-01-28T06:44:24;102932.49;;;2.87;90.90
56070;BME280;41944;52.078;-0.058;2023-01-28T06:46:51;102935.80;;;2.90;90.61
56070;BME280;41944;52.078;-0.058;2023-01-28T06:49:17;102944.38;;;2.93;90.24
56070;BME280;41944;52.078;-0.058;2023-01-28T06:51:45;102947.75;;;2.92;90.56
56070;BME280;41944;52.078;-0.058;2023-01-28T06:54:12;102949.07;;;2.84;91.65
56070;BME280;41944;52.078;-0.058;2023-01-28T06:56:39;102944.23;;;2.89;91.54
56070;BME280;41944;52.078;-0.058;2023-01-28T06:59:06;102943.25;;;2.86;92.12
56070;BME280;41944;52.078;-0.058;2023-01-28T07:01:33;102939.60;;;2.94;91.60
56070;BME280;41944;52.078;-0.058;2023-01-28T07:04:00;102937.32;;;2.90;91.53
56070;BME280;41944;52.078;-0.058;2023-01-28T07:06:27;102937.11;;;2.86;91.93
56070;BME280;41944;52.078;-0.058;2023-01-28T07:08:54;102938.33;;;3.00;90.77
56070;BME280;41944;52.078;-0.058;2023-01-28T07:11:21;102938.45;;;2.97;91.35
56070;BME280;41944;52.078;-0.058;2023-01-28T07:13:48;102935.61;;;3.05;91.08
56070;BME280;41944;52.078;-0.058;2023-01-28T07:16:14;102935.38;;;3.08;90.17
56070;BME280;41944;52.078;-0.058;2023-01-28T07:18:41;102922.61;;;3.26;89.47
56070;BME280;41944;52.078;-0.058;2023-01-28T07:21:08;102923.62;;;3.30;88.26
56070;BME280;41944;52.078;-0.058;2023-01-28T07:23:35;102924.55;;;3.30;87.89
56070;BME280;41944;52.078;-0.058;2023-01-28T07:26:03;102926.79;;;3.27;87.96
56070;BME280;41944;52.078;-0.058;2023-01-28T07:28:30;102928.53;;;3.41;87.44
56070;BME280;41944;52.078;-0.058;2023-01-28T07:30:57;102927.22;;;3.55;86.06
56070;BME280;41944;52.078;-0.058;2023-01-28T07:33:24;102921.20;;;3.50;85.25
56070;BME280;41944;52.078;-0.058;2023-01-28T07:35:52;102924.14;;;3.82;83.58
56070;BME280;41944;52.078;-0.058;2023-01-28T07:38:18;102924.66;;;3.66;83.61
56070;BME280;41944;52.078;-0.058;2023-01-28T07:40:46;102924.20;;;3.49;85.24
56070;BME280;41944;52.078;-0.058;2023-01-28T07:43:13;102924.18;;;3.42;86.58
56070;BME280;41944;52.078;-0.058;2023-01-28T07:45:40;102925.71;;;3.39;86.96
56070;BME280;41944;52.078;-0.058;2023-01-28T07:48:10;102921.87;;;3.35;87.67
56070;BME280;41944;52.078;-0.058;2023-01-28T07:50:37;102924.03;;;3.37;86.94
56070;BME280;41944;52.078;-0.058;2023-01-28T07:53:06;102925.67;;;3.35;86.66
56070;BME280;41944;52.078;-0.058;2023-01-28T07:55:34;102920.35;;;3.34;86.87
56070;BME280;41944;52.078;-0.058;2023-01-28T07:58:02;102919.93;;;3.42;87.57
56070;BME280;41944;52.078;-0.058;2023-01-28T08:00:32;102925.56;;;3.48;86.91
56070;BME280;41944;52.078;-0.058;2023-01-28T08:03:00;102927.45;;;3.53;86.33
56070;BME280;41944;52.078;-0.058;2023-01-28T08:05:32;102927.46;;;3.51;86.04
56070;BME280;41944;52.078;-0.058;2023-01-28T08:08:02;102924.50;;;3.42;86.67
56070;BME280;41944;52.078;-0.058;2023-01-28T08:10:30;102933.96;;;3.56;86.27
56070;BME280;41944;52.078;-0.058;2023-01-28T08:12:58;102932.31;;;3.60;85.71
56070;BME280;41944;52.078;-0.058;2023-01-28T08:15:26;102935.03;;;3.60;85.67
56070;BME280;41944;52.078;-0.058;2023-01-28T08:17:53;102940.94;;;3.52;85.80
56070;BME280;41944;52.078;-0.058;2023-01-28T08:20:21;102941.00;;;3.62;85.39
56070;BME280;41944;52.078;-0.058;2023-01-28T08:22:49;102938.37;;;3.66;85.71
56070;BME280;41944;52.078;-0.058;2023-01-28T08:25:16;102945.90;;;3.61;85.90
56070;BME280;41944;52.078;-0.058;2023-01-28T08:27:44;102948.68;;;3.61;86.97
56070;BME280;41944;52.078;-0.058;2023-01-28T08:30:11;102952.22;;;3.59;86.96
56070;BME280;41944;52.078;-0.058;2023-01-28T08:32:39;102958.87;;;3.55;87.19
56070;BME280;41944;52.078;-0.058;2023-01-28T08:35:06;102957.29;;;3.57;88.19
56070;BME280;41944;52.078;-0.058;2023-01-28T08:37:33;102963.45;;;3.54;89.30
56070;BME280;41944;52.078;-0.058;2023-01-28T08:40:00;102966.77;;;3.52;89.29
56070;BME280;41944;52.078;-0.058;2023-01-28T08:42:27;102972.17;;;3.48;88.97
56070;BME280;41944;52.078;-0.058;2023-01-28T08:44:54;102980.83;;;3.73;88.73
56070;BME280;41944;52.078;-0.058;2023-01-28T08:47:21;102981.25;;;3.63;89.15
56070;BME280;41944;52.078;-0.058;2023-01-28T08:49:47;102991.44;;;3.58;89.95
56070;BME280;41944;52.078;-0.058;2023-01-28T08:52:15;102993.28;;;3.88;88.21
56070;BME280;41944;52.078;-0.058;2023-01-28T08:54:42;102990.34;;;3.77;88.35
56070;BME280;41944;52.078;-0.058;2023-01-28T08:57:09;102993.38;;;3.89;87.49
56070;BME280;41944;52.078;-0.058;2023-01-28T08:59:36;103000.86;;;3.84;87.43
56070;BME280;41944;52.078;-0.058;2023-01-28T09:02:03;103003.90;;;3.97;86.58
56070;BME280;41944;52.078;-0.058;2023-01-28T09:04:30;102998.83;;;3.87;87.20
56070;BME280;41944;52.078;-0.058;2023-01-28T09:06:58;102999.73;;;4.11;86.53
56070;BME280;41944;52.078;-0.058;2023-01-28T09:09:30;103002.26;;;4.09;86.31
56070;BME280;41944;52.078;-0.058;2023-01-28T09:11:57;103005.96;;;4.26;85.50
56070;BME280;41944;52.078;-0.058;2023-01-28T09:14:24;102994.45;;;4.11;85.53
56070;BME280;41944;52.078;-0.058;2023-01-28T09:16:52;102987.13;;;4.33;85.03
56070;BME280;41944;52.078;-0.058;2023-01-28T09:19:18;102990.56;;;4.25;85.35
56070;BME280;41944;52.078;-0.058;2023-01-28T09:21:46;102988.63;;;4.11;86.18
56070;BME280;41944;52.078;-0.058;2023-01-28T09:24:12;102981.64;;;4.31;86.25
56070;BME280;41944;52.078;-0.058;2023-01-28T09:26:39;102972.93;;;4.38;85.77
56070;BME280;41944;52.078;-0.058;2023-01-28T09:29:13;102969.63;;;4.63;84.99
56070;BME280;41944;52.078;-0.058;2023-01-28T09:31:41;102975.99;;;4.71;84.01
56070;BME280;41944;52.078;-0.058;2023-01-28T09:34:09;102973.06;;;4.63;84.62
56070;BME280;41944;52.078;-0.058;2023-01-28T09:36:36;102972.15;;;4.61;85.00
56070;BME280;41944;52.078;-0.058;2023-01-28T09:39:03;102973.22;;;4.77;84.58
56070;BME280;41944;52.078;-0.058;2023-01-28T09:41:40;102970.30;;;4.85;84.27
56070;BME280;41944;52.078;-0.058;2023-01-28T09:44:23;102973.84;;;4.74;85.01
56070;BME280;41944;52.078;-0.058;2023-01-28T09:47:00;102965.46;;;4.78;85.22
56070;BME280;41944;52.078;-0.058;2023-01-28T09:49:32;102964.56;;;4.88;85.33
56070;BME280;41944;52.078;-0.058;2023-01-28T09:52:01;102949.43;;;4.91;84.13
56070;BME280;41944;52.078;-0.058;2023-01-28T09:54:33;102949.62;;;5.04;83.96
56070;BME280;41944;52.078;-0.058;2023-01-28T09:57:10;102948.88;;;5.17;83.09
56070;BME280;41944;52.078;-0.058;2023-01-28T09:59:38;102950.70;;;5.20;82.66
56070;BME280;41944;52.078;-0.058;2023-01-28T10:02:25;102954.55;;;5.17;83.84
56070;BME280;41944;52.078;-0.058;2023-01-28T10:04:59;102961.83;;;5.20;83.87
56070;BME280;41944;52.078;-0.058;2023-01-28T10:07:35;102960.51;;;5.26;83.09
56070;BME280;41944;52.078;-0.058;2023-01-28T10:10:09;102954.70;;;5.47;82.13
56070;BME280;41944;52.078;-0.058;2023-01-28T10:12:47;102951.83;;;5.54;81.95
56070;BME280;41944;52.078;-0.058;2023-01-28T10:15:25;102945.00;;;5.59;82.03
56070;BME280;41944;52.078;-0.058;2023-01-28T10:18:00;102943.58;;;5.68;81.66
56070;BME280;41944;52.078;-0.058;2023-01-28T10:20:32;102938.55;;;5.64;81.29
56070;BME280;41944;52.078;-0.058;2023-01-28T10:23:05;102932.62;;;5.71;80.53
56070;BME280;41944;52.078;-0.058;2023-01-28T10:25:34;102928.42;;;5.70;80.15
56070;BME280;41944;52.078;-0.058;2023-01-28T10:28:04;102918.96;;;5.83;79.90
56070;BME280;41944;52.078;-0.058;2023-01-28T10:30:42;102906.23;;;6.03;78.71
56070;BME280;41944;52.078;-0.058;2023-01-28T10:33:17;102904.12;;;5.98;78.77
56070;BME280;41944;52.078;-0.058;2023-01-28T10:35:45;102909.44;;;6.07;78.79
56070;BME280;41944;52.078;-0.058;2023-01-28T10:38:14;102906.24;;;6.23;77.86
56070;BME280;41944;52.078;-0.058;2023-01-28T10:40:42;102906.88;;;6.14;77.27
56070;BME280;41944;52.078;-0.058;2023-01-28T10:43:09;102907.24;;;6.25;75.98
56070;BME280;41944;52.078;-0.058;2023-01-28T10:45:41;102903.63;;;6.26;76.82
56070;BME280;41944;52.078;-0.058;2023-01-28T10:48:15;102898.48;;;6.33;76.09
56070;BME280;41944;52.078;-0.058;2023-01-28T10:50:49;102899.49;;;6.38;75.08
56070;BME280;41944;52.078;-0.058;2023-01-28T10:53:17;102899.86;;;6.33;75.90
56070;BME280;41944;52.078;-0.058;2023-01-28T10:55:50;102900.25;;;6.32;76.00
56070;BME280;41944;52.078;-0.058;2023-01-28T10:58:20;102897.82;;;6.34;76.51
56070;BME280;41944;52.078;-0.058;2023-01-28T11:00:52;102899.94;;;6.47;75.22
56070;BME280;41944;52.078;-0.058;2023-01-28T11:03:20;102903.19;;;6.62;75.03
56070;BME280;41944;52.078;-0.058;2023-01-28T11:05:50;102904.82;;;6.65;75.13
56070;BME280;41944;52.078;-0.058;2023-01-28T11:08:18;102903.51;;;6.68;75.70
56070;BME280;41944;52.078;-0.058;2023-01-28T11:10:46;102903.53;;;6.64;74.74
56070;BME280;41944;52.078;-0.058;2023-01-28T11:13:16;102901.67;;;6.61;74.71
56070;BME280;41944;52.078;-0.058;2023-01-28T11:15:47;102902.35;;;6.77;74.68
56070;BME280;41944;52.078;-0.058;2023-01-28T11:18:17;102903.38;;;6.78;74.04
56070;BME280;41944;52.078;-0.058;2023-01-28T11:20:51;102905.34;;;6.88;74.41
56070;BME280;41944;52.078;-0.058;2023-01-28T11:23:21;102904.60;;;6.98;74.85
56070;BME280;41944;52.078;-0.058;2023-01-28T11:26:01;102907.43;;;6.98;74.93
56070;BME280;41944;52.078;-0.058;2023-01-28T11:28:30;102908.33;;;7.14;73.45
56070;BME280;41944;52.078;-0.058;2023-01-28T11:30:58;102907.79;;;7.19;72.57
56070;BME280;41944;52.078;-0.058;2023-01-28T11:33:31;102905.83;;;7.32;72.23
56070;BME280;41944;52.078;-0.058;2023-01-28T11:36:07;102908.78;;;7.45;71.75
56070;BME280;41944;52.078;-0.058;2023-01-28T11:38:47;102909.74;;;7.36;72.07
56070;BME280;41944;52.078;-0.058;2023-01-28T11:41:15;102913.02;;;7.34;72.40
56070;BME280;41944;52.078;-0.058;2023-01-28T11:43:43;102910.93;;;7.37;72.21
56070;BME280;41944;52.078;-0.058;2023-01-28T11:46:27;102903.62;;;7.41;73.25
56070;BME280;41944;52.078;-0.058;2023-01-28T11:49:06;102898.95;;;7.44;74.29
56070;BME280;41944;52.078;-0.058;2023-01-28T11:51:39;102899.48;;;7.68;72.96
56070;BME280;41944;52.078;-0.058;2023-01-28T11:54:19;102913.52;;;7.84;72.24
56070;BME280;41944;52.078;-0.058;2023-01-28T11:57:00;102910.46;;;7.86;72.24
56070;BME280;41944;52.078;-0.058;2023-01-28T11:59:44;102911.50;;;7.76;71.86
56070;BME280;41944;52.078;-0.058;2023-01-28T12:02:28;102904.44;;;7.79;72.81
56070;BME280;41944;52.078;-0.058;2023-01-28T12:05:12;102898.90;;;7.84;73.68
56070;BME280;41944;52.078;-0.058;2023-01-28T12:07:47;102900.35;;;8.01;73.58
56070;BME280;41944;52.078;-0.058;2023-01-28T12:10:21;102903.40;;;8.14;72.25
56070;BME280;41944;52.078;-0.058;2023-01-28T12:12:59;102910.97;;;8.11;72.61
56070;BME280;41944;52.078;-0.058;2023-01-28T12:16:02;102911.39;;;8.32;71.10
56070;BME280;41944;52.078;-0.058;2023-01-28T12:19:06;102901.68;;;8.21;71.46
56070;BME280;41944;52.078;-0.058;2023-01-28T12:21:46;102897.27;;;8.32;72.31
56070;BME280;41944;52.078;-0.058;2023-01-28T12:24:23;102895.74;;;8.18;73.07
56070;BME280;41944;52.078;-0.058;2023-01-28T12:27:02;102892.72;;;8.25;71.90
56070;BME280;41944;52.078;-0.058;2023-01-28T12:29:34;102890.44;;;8.24;71.91
56070;BME280;41944;52.078;-0.058;2023-01-28T12:32:30;102887.72;;;8.32;71.38
56070;BME280;41944;52.078;-0.058;2023-01-28T12:35:30;102881.75;;;8.49;70.29
56070;BME280;41944;52.078;-0.058;2023-01-28T12:38:07;102877.53;;;8.61;69.93
56070;BME280;41944;52.078;-0.058;2023-01-28T12:40:56;102871.32;;;8.52;71.20
56070;BME280;41944;52.078;-0.058;2023-01-28T12:43:38;102867.69;;;8.39;70.71
56070;BME280;41944;52.078;-0.058;2023-01-28T12:46:15;102874.43;;;8.18;71.66
56070;BME280;41944;52.078;-0.058;2023-01-28T12:48:48;102869.71;;;8.18;72.32
56070;BME280;41944;52.078;-0.058;2023-01-28T12:51:22;102866.01;;;8.08;72.97
56070;BME280;41944;52.078;-0.058;2023-01-28T12:53:53;102863.25;;;8.09;72.86
56070;BME280;41944;52.078;-0.058;2023-01-28T12:56:24;102853.81;;;8.27;72.69
56070;BME280;41944;52.078;-0.058;2023-01-28T12:58:57;102860.25;;;8.08;72.90
56070;BME280;41944;52.078;-0.058;2023-01-28T13:01:28;102860.83;;;7.98;73.10
56070;BME280;41944;52.078;-0.058;2023-01-28T13:04:02;102861.24;;;8.11;73.92